Time;durP1;ratioP1;P1;durP2;ratioP2;P2;SDS_P1;SDS_P2;PMS_P1;PMS_P2;Temp;Humidity;BMP_temperature;BMP_pressure;BME280_temperature;BME280_humidity;BME280_pressure;Samples;Min_cycle;Max_cycle;Signal;HPM_P1;HPM_P2
2021/11/19 00:01:11;;;;;;;13.17;8.37;;;6.60;99.90;;;;;;4874332;29;20406;-80
2021/11/19 00:03:39;;;;;;;16.10;9.43;;;6.70;99.90;;;;;;4868581;29;20197;-80
2021/11/19 00:06:08;;;;;;;12.17;8.10;;;6.60;99.90;;;;;;4870287;29;20452;-80
2021/11/19 00:09:06;;;;;;;13.27;8.40;;;6.80;99.90;;;;;;4866386;29;20438;-81
2021/11/19 00:11:34;;;;;;;10.97;7.60;;;6.90;99.90;;;;;;4913085;29;20467;-80
2021/11/19 00:14:02;;;;;;;18.00;8.13;;;6.90;99.90;;;;;;4938306;28;20391;-80
2021/11/19 00:16:39;;;;;;;10.60;8.50;;;6.80;99.90;;;;;;4968816;28;20369;-80
2021/11/19 00:19:05;;;;;;;13.03;9.17;;;6.80;99.90;;;;;;4988079;28;20493;-81
2021/11/19 00:21:36;;;;;;;15.73;8.90;;;7.00;99.90;;;;;;4988082;28;20399;-81
2021/11/19 00:24:14;;;;;;;15.90;9.80;;;6.80;99.90;;;;;;4974505;28;20379;-80
2021/11/19 00:26:49;;;;;;;15.20;9.57;;;6.90;99.90;;;;;;4972967;28;20428;-80
2021/11/19 00:29:20;;;;;;;15.73;8.83;;;6.90;99.90;;;;;;4954647;28;20496;-80
2021/11/19 00:32:12;;;;;;;18.53;8.90;;;7.00;99.90;;;;;;5012730;28;20371;-80
2021/11/19 00:34:42;;;;;;;15.00;9.00;;;6.80;99.90;;;;;;4984656;28;20394;-81
2021/11/19 00:37:12;;;;;;;17.27;7.87;;;6.80;99.90;;;;;;4985165;28;20403;-80
2021/11/19 00:39:39;;;;;;;12.33;9.23;;;6.60;99.90;;;;;;4966497;29;20500;-80
2021/11/19 00:42:14;;;;;;;13.23;8.40;;;6.80;99.90;;;;;;4963453;29;20817;-80
2021/11/19 00:44:48;;;;;;;12.70;8.43;;;6.80;99.90;;;;;;4949783;29;20457;-80
2021/11/19 00:47:41;;;;;;;11.50;7.20;;;6.90;99.90;;;;;;4949541;29;20440;-80
2021/11/19 00:50:12;;;;;;;13.17;9.00;;;6.90;99.90;;;;;;4946413;29;20739;-80
2021/11/19 00:52:42;;;;;;;13.93;7.97;;;6.60;99.90;;;;;;4902045;29;20434;-80
2021/11/19 00:55:17;;;;;;;17.10;9.80;;;6.60;99.90;;;;;;4913367;29;20807;-81
2021/11/19 00:57:47;;;;;;;16.40;9.07;;;6.60;99.90;;;;;;4913841;29;20418;-80
2021/11/19 01:00:21;;;;;;;14.77;8.80;;;6.60;99.90;;;;;;4901325;29;20383;-81
2021/11/19 01:02:48;;;;;;;11.00;7.90;;;6.50;99.90;;;;;;4908109;29;20430;-80
2021/11/19 01:05:14;;;;;;;12.70;8.70;;;6.50;99.90;;;;;;4891560;29;20392;-81
2021/11/19 01:07:55;;;;;;;11.23;8.00;;;6.60;99.90;;;;;;4907010;29;20469;-80
2021/11/19 01:10:27;;;;;;;16.70;8.83;;;6.50;99.90;;;;;;4892301;29;20384;-80
2021/11/19 01:13:06;;;;;;;13.20;8.63;;;6.50;99.90;;;;;;4898488;29;20404;-81
2021/11/19 01:15:38;;;;;;;17.23;10.20;;;6.60;99.90;;;;;;4874906;29;20855;-80
2021/11/19 01:18:16;;;;;;;18.50;9.13;;;6.50;99.90;;;;;;4870362;29;20428;-81
2021/11/19 01:20:57;;;;;;;18.47;9.87;;;6.50;99.90;;;;;;4928422;29;20418;-80
2021/11/19 01:23:38;;;;;;;21.60;8.63;;;6.50;99.90;;;;;;4931653;29;20406;-80
2021/11/19 01:26:11;;;;;;;11.50;7.53;;;6.50;99.90;;;;;;4918788;29;20395;-80
2021/11/19 01:28:44;;;;;;;15.47;8.47;;;6.50;99.90;;;;;;4929222;29;21045;-80
2021/11/19 01:31:18;;;;;;;18.80;9.50;;;6.70;99.90;;;;;;4896249;29;20479;-81
2021/11/19 01:33:48;;;;;;;14.17;10.60;;;6.80;99.90;;;;;;4910096;29;20392;-80
2021/11/19 01:36:19;;;;;;;17.07;10.77;;;6.90;99.90;;;;;;4895679;29;20501;-80
2021/11/19 01:38:47;;;;;;;13.80;8.60;;;7.00;99.90;;;;;;4876481;29;20413;-81
2021/11/19 01:41:19;;;;;;;18.23;8.20;;;7.00;99.90;;;;;;4904125;29;20421;-80
2021/11/19 01:43:47;;;;;;;14.57;10.00;;;6.80;99.90;;;;;;4926084;29;20774;-81
2021/11/19 01:46:22;;;;;;;12.23;8.30;;;7.00;99.90;;;;;;4910755;29;20459;-81
2021/11/19 01:48:50;;;;;;;14.20;9.10;;;6.90;99.90;;;;;;4910888;29;20903;-80
2021/11/19 01:51:49;;;;;;;14.40;9.00;;;6.90;99.90;;;;;;4911802;29;20364;-80
2021/11/19 01:54:36;;;;;;;12.07;7.27;;;7.00;99.90;;;;;;4912527;29;20405;-80
2021/11/19 01:57:21;;;;;;;13.67;7.60;;;7.00;99.90;;;;;;4912590;29;20494;-81
2021/11/19 01:59:56;;;;;;;14.53;9.30;;;6.80;99.90;;;;;;4919809;29;20413;-80
2021/11/19 02:02:31;;;;;;;11.20;9.40;;;6.80;99.90;;;;;;4911210;29;20400;-80
2021/11/19 02:05:08;;;;;;;16.93;8.80;;;6.70;99.90;;;;;;4889991;29;20409;-80
2021/11/19 02:07:44;;;;;;;15.87;8.53;;;6.70;99.90;;;;;;4908986;29;20424;-81
2021/11/19 02:10:41;;;;;;;12.60;8.10;;;6.80;99.90;;;;;;4977346;28;20391;-81
2021/11/19 02:13:44;;;;;;;13.97;9.67;;;6.70;99.90;;;;;;5004559;28;20383;-80
2021/11/19 02:16:49;;;;;;;14.83;8.90;;;6.70;99.90;;;;;;4989874;28;20473;-80
2021/11/19 02:19:34;;;;;;;9.27;8.00;;;6.80;99.90;;;;;;4972663;28;20376;-80
2021/11/19 02:22:13;;;;;;;12.40;8.77;;;6.90;99.90;;;;;;4969078;28;20416;-81
2021/11/19 02:25:03;;;;;;;26.47;11.23;;;6.80;99.90;;;;;;4946967;29;20781;-80
2021/11/19 02:27:41;;;;;;;13.33;8.17;;;6.70;99.90;;;;;;4933079;29;20468;-81
2021/11/19 02:30:19;;;;;;;10.63;8.40;;;6.70;99.90;;;;;;4927140;29;20372;-80
2021/11/19 02:33:00;;;;;;;13.33;9.57;;;6.70;99.90;;;;;;4887329;29;20376;-80
2021/11/19 02:35:47;;;;;;;13.13;8.50;;;6.90;99.90;;;;;;4899964;29;20425;-79
2021/11/19 02:38:19;;;;;;;12.50;10.00;;;7.00;99.90;;;;;;4899116;29;20463;-81
2021/11/19 02:40:52;;;;;;;12.10;9.27;;;6.90;99.90;;;;;;4911662;29;20929;-80
2021/11/19 02:43:34;;;;;;;18.73;9.93;;;6.80;99.90;;;;;;4924201;29;20395;-81
2021/11/19 02:46:01;;;;;;;20.73;9.60;;;6.80;99.90;;;;;;4891567;29;20426;-81
2021/11/19 02:48:37;;;;;;;14.47;8.23;;;7.00;99.90;;;;;;4871010;29;20458;-80
2021/11/19 02:51:09;;;;;;;15.90;8.80;;;6.80;99.90;;;;;;4840644;29;20423;-80
2021/11/19 02:53:40;;;;;;;12.80;9.10;;;6.70;99.90;;;;;;4825234;29;20547;-81
2021/11/19 02:56:06;;;;;;;16.17;9.50;;;6.60;99.90;;;;;;4862253;29;20454;-79
2021/11/19 02:58:38;;;;;;;11.70;9.27;;;6.70;99.90;;;;;;4843682;29;20537;-78
2021/11/19 03:01:19;;;;;;;15.80;8.13;;;6.70;99.90;;;;;;4828728;29;20484;-79
2021/11/19 03:04:05;;;;;;;19.13;9.70;;;6.90;99.90;;;;;;4849753;29;20428;-80
2021/11/19 03:06:58;;;;;;;18.77;7.90;;;6.90;99.90;;;;;;4853139;29;20433;-80
2021/11/19 03:09:30;;;;;;;11.97;6.83;;;6.90;99.90;;;;;;4814373;29;20517;-81
2021/11/19 03:11:58;;;;;;;28.77;10.20;;;6.80;99.90;;;;;;4860877;29;20382;-81
2021/11/19 03:14:28;;;;;;;17.63;7.80;;;6.80;99.90;;;;;;4865506;29;20386;-81
2021/11/19 03:17:06;;;;;;;10.43;8.10;;;7.00;99.90;;;;;;4865863;29;20487;-81
2021/11/19 03:19:35;;;;;;;16.57;8.27;;;7.10;99.90;;;;;;4869994;29;20406;-81
2021/11/19 03:22:18;;;;;;;11.47;7.20;;;6.90;99.90;;;;;;4917277;29;20409;-81
2021/11/19 03:24:44;;;;;;;16.27;9.30;;;7.00;99.90;;;;;;4867044;29;20878;-81
2021/11/19 03:27:11;;;;;;;14.63;8.50;;;7.10;99.90;;;;;;4867420;29;20455;-81
2021/11/19 03:29:44;;;;;;;16.13;8.87;;;7.10;99.90;;;;;;4877670;29;20403;-80
2021/11/19 03:32:25;;;;;;;10.50;6.80;;;7.20;99.90;;;;;;4884872;29;20861;-81
2021/11/19 03:34:56;;;;;;;19.10;7.80;;;7.20;99.90;;;;;;4870516;29;20415;-80
2021/11/19 03:37:26;;;;;;;14.23;8.10;;;7.30;99.90;;;;;;4869815;29;20437;-81
2021/11/19 03:39:57;;;;;;;13.73;7.30;;;7.20;99.90;;;;;;4855622;29;20425;-80
2021/11/19 03:43:09;;;;;;;17.07;8.80;;;7.20;99.90;;;;;;4831920;29;20405;-81
2021/11/19 03:46:05;;;;;;;20.67;9.23;;;7.40;99.90;;;;;;4833002;29;20431;-80
2021/11/19 03:48:42;;;;;;;15.80;8.00;;;7.30;99.90;;;;;;4829484;29;20580;-81
2021/11/19 03:51:44;;;;;;;14.90;7.30;;;7.20;99.90;;;;;;4838995;29;20414;-80
2021/11/19 03:54:16;;;;;;;11.27;6.37;;;7.10;99.90;;;;;;4833967;29;20405;-80
2021/11/19 03:56:45;;;;;;;12.93;8.00;;;7.30;99.90;;;;;;4840095;29;20452;-78
2021/11/19 03:59:13;;;;;;;15.27;8.00;;;7.50;99.90;;;;;;4855801;29;20917;-79
2021/11/19 04:01:46;;;;;;;9.07;6.93;;;7.50;99.90;;;;;;4839829;29;20404;-79
2021/11/19 04:04:14;;;;;;;12.93;7.30;;;7.60;99.90;;;;;;4855741;29;20391;-78
2021/11/19 04:06:41;;;;;;;14.87;7.50;;;7.60;99.90;;;;;;4852659;29;20441;-78
2021/11/19 04:09:14;;;;;;;14.93;7.60;;;7.70;99.90;;;;;;4873585;29;20498;-78
2021/11/19 04:11:44;;;;;;;22.47;7.37;;;7.60;99.90;;;;;;4873028;29;20466;-78
2021/11/19 04:14:14;;;;;;;12.60;9.13;;;7.50;99.90;;;;;;4856273;29;20403;-80
2021/11/19 04:16:50;;;;;;;15.80;9.37;;;7.40;99.90;;;;;;4867573;29;20382;-81
2021/11/19 04:19:21;;;;;;;22.70;9.83;;;7.20;99.90;;;;;;4878104;29;20416;-80
2021/11/19 04:22:00;;;;;;;17.57;7.77;;;7.30;99.90;;;;;;4873745;29;20797;-81
2021/11/19 04:24:31;;;;;;;11.80;8.13;;;7.20;99.90;;;;;;4888006;29;20931;-80
2021/11/19 04:27:01;;;;;;;12.23;7.87;;;7.40;99.90;;;;;;4875150;29;20420;-80
2021/11/19 04:29:52;;;;;;;17.60;7.30;;;7.40;99.90;;;;;;4898973;29;20400;-81
2021/11/19 04:32:27;;;;;;;17.90;8.90;;;7.50;99.90;;;;;;4921410;29;20403;-81
2021/11/19 04:35:16;;;;;;;19.40;8.93;;;7.50;99.90;;;;;;4932416;29;20435;-80
2021/11/19 04:37:44;;;;;;;15.10;8.10;;;7.60;99.90;;;;;;4900353;29;20885;-80
2021/11/19 04:40:12;;;;;;;23.20;8.63;;;7.60;99.90;;;;;;4898358;29;20516;-80
2021/11/19 04:42:40;;;;;;;18.33;8.90;;;7.60;99.90;;;;;;4914116;29;20928;-79
2021/11/19 04:45:13;;;;;;;10.77;7.03;;;7.60;99.90;;;;;;4905409;29;20430;-79
2021/11/19 04:47:40;;;;;;;9.87;8.70;;;7.60;99.90;;;;;;4914007;29;20455;-78
2021/11/19 04:50:14;;;;;;;8.70;7.47;;;7.60;99.90;;;;;;4937437;29;21010;-80
2021/11/19 04:53:01;;;;;;;11.93;7.60;;;7.60;99.90;;;;;;4921350;29;20419;-80
2021/11/19 04:55:30;;;;;;;10.90;7.10;;;7.70;99.90;;;;;;4890091;29;20409;-80
2021/11/19 04:57:56;;;;;;;16.83;8.53;;;7.70;99.90;;;;;;4890601;29;20395;-80
2021/11/19 05:00:36;;;;;;;13.00;9.20;;;7.60;99.90;;;;;;4906327;29;20470;-80
2021/11/19 05:03:29;;;;;;;11.07;7.80;;;7.50;99.90;;;;;;4887501;29;20849;-80
2021/11/19 05:05:58;;;;;;;15.67;10.20;;;7.60;99.90;;;;;;4850320;29;20617;-80
2021/11/19 05:08:25;;;;;;;15.03;8.83;;;7.50;99.90;;;;;;4835094;29;20558;-80
2021/11/19 05:10:57;;;;;;;11.00;8.03;;;7.60;99.90;;;;;;4833535;29;20427;-80
2021/11/19 05:13:29;;;;;;;29.03;8.77;;;7.40;99.90;;;;;;4782128;30;20407;-80
2021/11/19 05:15:58;;;;;;;15.23;8.50;;;7.40;99.90;;;;;;4799072;30;20398;-80
2021/11/19 05:18:32;;;;;;;21.57;10.17;;;7.30;99.90;;;;;;4769212;30;20494;-80
2021/11/19 05:21:00;;;;;;;15.53;8.67;;;7.40;99.90;;;;;;4760211;29;20424;-80
2021/11/19 05:23:32;;;;;;;23.53;9.90;;;7.50;99.90;;;;;;4849498;29;20391;-80
2021/11/19 05:26:00;;;;;;;17.70;9.27;;;7.50;99.90;;;;;;4852349;29;20405;-80
2021/11/19 05:28:31;;;;;;;20.93;11.13;;;7.60;99.90;;;;;;4852919;29;20435;-80
2021/11/19 05:30:57;;;;;;;19.83;10.40;;;7.40;99.90;;;;;;4853522;29;20423;-80
2021/11/19 05:33:28;;;;;;;11.37;8.13;;;7.30;99.90;;;;;;4857232;29;20382;-80
2021/11/19 05:35:58;;;;;;;14.80;8.90;;;7.10;99.90;;;;;;4857840;29;20424;-80
2021/11/19 05:38:26;;;;;;;11.30;8.83;;;7.00;99.90;;;;;;4889516;29;20888;-80
2021/11/19 05:40:57;;;;;;;24.33;9.77;;;6.90;99.90;;;;;;4890840;29;20388;-78
2021/11/19 05:43:28;;;;;;;13.40;8.57;;;7.00;99.90;;;;;;4884957;29;20386;-81
2021/11/19 05:46:07;;;;;;;14.97;8.60;;;7.20;99.90;;;;;;4905732;29;20463;-80
2021/11/19 05:48:36;;;;;;;18.83;10.00;;;6.90;99.90;;;;;;4896792;29;20496;-80
2021/11/19 05:51:03;;;;;;;11.87;8.87;;;7.10;99.90;;;;;;4912677;29;20473;-80
2021/11/19 05:53:30;;;;;;;19.50;9.80;;;7.10;99.90;;;;;;4929423;29;20390;-81
2021/11/19 05:56:13;;;;;;;12.67;9.80;;;7.20;99.90;;;;;;4926699;29;20439;-81
2021/11/19 05:59:17;;;;;;;12.90;8.53;;;7.20;99.90;;;;;;4910824;29;20405;-81
2021/11/19 06:01:47;;;;;;;21.93;9.93;;;7.20;99.90;;;;;;4862076;29;20381;-81
2021/11/19 06:04:19;;;;;;;23.70;12.30;;;7.00;99.90;;;;;;4907667;29;20406;-81
2021/11/19 06:06:49;;;;;;;19.47;8.97;;;7.20;99.90;;;;;;4892200;29;20400;-80
2021/11/19 06:09:27;;;;;;;15.73;8.90;;;7.00;99.90;;;;;;4907972;29;20407;-81
2021/11/19 06:12:23;;;;;;;18.37;12.23;;;7.10;99.90;;;;;;4907977;29;20417;-80
2021/11/19 06:15:00;;;;;;;18.13;10.87;;;7.00;99.90;;;;;;4870308;29;20394;-80
2021/11/19 06:17:43;;;;;;;15.30;10.07;;;7.10;99.90;;;;;;4874119;29;20416;-81
2021/11/19 06:20:27;;;;;;;16.30;10.33;;;7.10;99.90;;;;;;4863843;29;20433;-81
2021/11/19 06:23:11;;;;;;;20.63;11.67;;;7.00;99.90;;;;;;4869528;29;20418;-80
2021/11/19 06:25:45;;;;;;;25.97;12.00;;;6.90;99.90;;;;;;4847256;29;20464;-80
2021/11/19 06:28:17;;;;;;;14.10;10.20;;;7.10;99.90;;;;;;4830246;29;20563;-80
2021/11/19 06:30:48;;;;;;;14.63;10.43;;;7.20;99.90;;;;;;4866143;29;20424;-81
2021/11/19 06:33:19;;;;;;;16.33;10.10;;;7.20;99.90;;;;;;4867178;29;20435;-80
2021/11/19 06:36:02;;;;;;;28.40;12.27;;;7.10;99.90;;;;;;4837780;29;20422;-80
2021/11/19 06:38:33;;;;;;;22.23;11.33;;;7.00;99.90;;;;;;4850783;29;20205;-81
2021/11/19 06:41:01;;;;;;;18.03;10.13;;;7.30;99.90;;;;;;4865758;29;20454;-81
2021/11/19 06:43:33;;;;;;;24.30;11.10;;;7.20;99.90;;;;;;4814929;29;20405;-80
2021/11/19 06:46:01;;;;;;;15.93;9.63;;;7.10;99.90;;;;;;4800376;29;20453;-80
2021/11/19 06:48:28;;;;;;;13.50;9.10;;;7.10;99.90;;;;;;4799586;29;20519;-81
2021/11/19 06:50:57;;;;;;;13.10;9.90;;;7.10;99.90;;;;;;4813746;29;20433;-80
2021/11/19 06:53:27;;;;;;;17.83;10.37;;;7.20;99.90;;;;;;4895991;29;20399;-80
2021/11/19 06:55:58;;;;;;;20.07;10.43;;;7.30;99.90;;;;;;4926516;29;20411;-81
2021/11/19 06:58:26;;;;;;;20.00;9.27;;;7.10;99.90;;;;;;4913899;29;20406;-80
2021/11/19 07:01:06;;;;;;;17.10;9.90;;;7.10;99.90;;;;;;4942031;29;20455;-81
2021/11/19 07:03:35;;;;;;;16.20;10.20;;;7.20;99.90;;;;;;4908404;29;20400;-81
2021/11/19 07:06:06;;;;;;;13.67;10.10;;;7.40;99.90;;;;;;4909750;29;20507;-81
2021/11/19 07:08:39;;;;;;;18.63;10.20;;;7.40;99.90;;;;;;4932180;29;20519;-81
2021/11/19 07:11:12;;;;;;;15.17;10.03;;;7.50;99.90;;;;;;4931148;29;20440;-81
2021/11/19 07:14:01;;;;;;;20.43;10.43;;;7.60;99.90;;;;;;4891924;29;20441;-80
2021/11/19 07:16:36;;;;;;;12.53;8.90;;;7.60;99.90;;;;;;4909856;29;20502;-81
2021/11/19 07:19:07;;;;;;;20.27;9.27;;;7.50;99.90;;;;;;4928318;29;21001;-81
2021/11/19 07:21:56;;;;;;;18.27;10.63;;;7.50;99.90;;;;;;4926755;29;20943;-81
2021/11/19 07:24:26;;;;;;;14.53;10.33;;;7.50;99.90;;;;;;4955127;29;20398;-80
2021/11/19 07:27:07;;;;;;;19.67;10.50;;;7.60;99.90;;;;;;4928672;29;20421;-80
2021/11/19 07:29:35;;;;;;;18.80;10.47;;;7.60;99.90;;;;;;4949939;29;20397;-80
2021/11/19 07:32:02;;;;;;;11.80;9.23;;;7.70;99.90;;;;;;4911967;29;20426;-79
2021/11/19 07:34:37;;;;;;;10.87;8.67;;;7.70;99.90;;;;;;4950451;29;20757;-81
2021/11/19 07:37:27;;;;;;;22.73;8.90;;;7.80;99.90;;;;;;4931440;29;20427;-80
2021/11/19 07:39:55;;;;;;;16.90;9.93;;;7.80;99.90;;;;;;4871352;29;20421;-80
2021/11/19 07:42:44;;;;;;;19.53;10.97;;;7.80;99.90;;;;;;4917163;29;20408;-80
2021/11/19 07:45:14;;;;;;;16.43;10.13;;;7.80;99.90;;;;;;4837468;29;20475;-80
2021/11/19 07:47:48;;;;;;;15.77;9.80;;;7.90;99.90;;;;;;4835198;29;21078;-80
2021/11/19 07:50:23;;;;;;;11.80;8.50;;;7.80;99.90;;;;;;4816374;29;20417;-81
2021/11/19 07:53:11;;;;;;;12.00;7.83;;;7.80;99.90;;;;;;4798025;29;20516;-81
2021/11/19 07:55:42;;;;;;;14.20;9.40;;;7.80;99.90;;;;;;4775665;29;20408;-81
2021/11/19 07:58:16;;;;;;;13.77;8.60;;;7.80;99.90;;;;;;4805039;29;20435;-81
2021/11/19 08:00:51;;;;;;;17.63;9.03;;;7.70;99.90;;;;;;4802795;29;20420;-81
2021/11/19 08:03:32;;;;;;;10.83;8.27;;;7.80;99.90;;;;;;4811069;29;20430;-80
2021/11/19 08:06:05;;;;;;;15.77;10.03;;;7.90;99.90;;;;;;4801246;29;20419;-79
2021/11/19 08:08:33;;;;;;;14.40;8.80;;;7.80;99.90;;;;;;4786200;29;20497;-81
2021/11/19 08:11:02;;;;;;;10.63;7.30;;;7.70;99.90;;;;;;4759805;30;20443;-81
2021/11/19 08:13:32;;;;;;;10.70;8.50;;;7.70;99.90;;;;;;4743126;30;20632;-81
2021/11/19 08:16:04;;;;;;;11.80;8.23;;;7.70;99.90;;;;;;4736036;30;20486;-81
2021/11/19 08:18:41;;;;;;;12.40;7.30;;;7.80;99.90;;;;;;4802851;29;20659;-81
2021/11/19 08:21:33;;;;;;;13.67;7.50;;;7.90;99.90;;;;;;4815036;29;20509;-80
2021/11/19 08:24:35;;;;;;;12.07;6.97;;;8.00;99.90;;;;;;4771086;30;20410;-80
2021/11/19 08:27:08;;;;;;;11.27;8.03;;;8.00;99.90;;;;;;4803322;29;20462;-81
2021/11/19 08:29:35;;;;;;;10.47;9.10;;;8.20;99.90;;;;;;4785396;29;20418;-80
2021/11/19 08:32:07;;;;;;;14.10;9.20;;;8.20;99.90;;;;;;4778746;30;20492;-78
2021/11/19 08:34:33;;;;;;;11.70;8.77;;;8.10;99.90;;;;;;4805051;29;20424;-80
2021/11/19 08:37:01;;;;;;;15.13;9.93;;;8.20;99.90;;;;;;4833383;29;20416;-80
2021/11/19 08:39:31;;;;;;;12.87;8.10;;;8.10;99.90;;;;;;4819150;29;20544;-80
2021/11/19 08:41:57;;;;;;;13.40;9.50;;;8.10;99.90;;;;;;4855194;29;21012;-81
2021/11/19 08:44:24;;;;;;;13.97;7.23;;;8.20;99.90;;;;;;4916017;29;20440;-80
2021/11/19 08:46:52;;;;;;;13.80;9.00;;;8.10;99.90;;;;;;4920032;29;20431;-80
2021/11/19 08:49:24;;;;;;;18.53;10.43;;;8.10;99.90;;;;;;4926821;29;20426;-82
2021/11/19 08:51:50;;;;;;;14.97;10.57;;;8.20;99.90;;;;;;4954395;28;20413;-80
2021/11/19 08:54:17;;;;;;;14.80;9.50;;;8.00;99.90;;;;;;4971782;28;20941;-81
2021/11/19 08:56:48;;;;;;;11.57;8.90;;;7.60;99.90;;;;;;5000234;28;20403;-80
2021/11/19 08:59:15;;;;;;;13.63;7.07;;;7.60;99.90;;;;;;4999801;28;20433;-79
2021/11/19 09:01:46;;;;;;;11.93;8.77;;;7.50;99.90;;;;;;5004358;28;20391;-80
2021/11/19 09:04:12;;;;;;;14.37;9.13;;;7.70;99.90;;;;;;5000749;28;20909;-81
2021/11/19 09:06:39;;;;;;;10.60;7.87;;;8.00;99.90;;;;;;5007062;28;20396;-78
2021/11/19 09:09:06;;;;;;;14.30;7.97;;;8.20;99.90;;;;;;5014673;28;20441;-80
2021/11/19 09:11:33;;;;;;;12.57;9.23;;;8.30;99.90;;;;;;5032711;28;20489;-81
2021/11/19 09:13:59;;;;;;;11.77;7.33;;;8.40;99.90;;;;;;5036526;28;20402;-80
2021/11/19 09:16:30;;;;;;;16.50;9.03;;;8.40;99.90;;;;;;5051511;27;20428;-80
2021/11/19 09:19:08;;;;;;;16.20;8.13;;;8.20;99.90;;;;;;5104437;28;20395;-80
2021/11/19 09:21:43;;;;;;;11.80;8.53;;;8.40;99.90;;;;;;5105185;28;20419;-81
2021/11/19 09:24:16;;;;;;;13.23;8.77;;;8.50;99.90;;;;;;5099136;28;20444;-81
2021/11/19 09:27:01;;;;;;;14.00;8.60;;;8.40;99.90;;;;;;5126650;27;20498;-81
2021/11/19 09:29:36;;;;;;;16.97;9.70;;;8.10;99.90;;;;;;5106845;28;20402;-81
2021/11/19 09:32:05;;;;;;;10.00;8.17;;;8.40;99.90;;;;;;5117078;28;20383;-80
2021/11/19 09:34:38;;;;;;;13.60;7.87;;;8.30;99.90;;;;;;5117372;28;20486;-80
2021/11/19 09:37:06;;;;;;;14.63;8.73;;;8.10;99.90;;;;;;5084845;28;20386;-81
2021/11/19 09:39:34;;;;;;;14.23;7.90;;;8.00;99.90;;;;;;5098427;28;20374;-81
2021/11/19 09:42:15;;;;;;;10.87;7.30;;;8.20;99.90;;;;;;5122414;28;20378;-79
2021/11/19 09:45:16;;;;;;;13.93;8.00;;;8.40;99.90;;;;;;5122147;28;20990;-81
2021/11/19 09:47:53;;;;;;;13.27;7.00;;;8.30;99.90;;;;;;5120212;28;20462;-81
2021/11/19 09:50:51;;;;;;;12.97;8.90;;;8.40;99.90;;;;;;5116056;27;20406;-81
2021/11/19 09:53:41;;;;;;;12.27;7.70;;;8.40;99.90;;;;;;5101934;28;20395;-81
2021/11/19 09:56:21;;;;;;;11.57;8.43;;;8.20;99.90;;;;;;5120782;28;20453;-80
2021/11/19 09:59:11;;;;;;;14.20;6.93;;;8.10;99.90;;;;;;5114123;28;20398;-81
2021/11/19 10:01:55;;;;;;;12.77;7.60;;;8.30;99.90;;;;;;5128076;28;20439;-79
2021/11/19 10:04:47;;;;;;;14.93;8.77;;;8.60;99.90;;;;;;5095057;28;20748;-80
2021/11/19 10:07:28;;;;;;;15.33;7.67;;;8.80;99.90;;;;;;5106587;28;20449;-80
2021/11/19 10:10:31;;;;;;;7.43;6.43;;;8.40;99.90;;;;;;5094525;28;20761;-80
2021/11/19 10:13:27;;;;;;;13.13;8.77;;;8.20;99.90;;;;;;5108936;28;20453;-80
2021/11/19 10:16:20;;;;;;;16.47;11.07;;;8.00;99.90;;;;;;5098092;28;20405;-81
2021/11/19 10:19:00;;;;;;;18.47;9.80;;;8.30;99.90;;;;;;5062054;28;20404;-81
2021/11/19 10:21:53;;;;;;;11.30;8.40;;;8.00;99.90;;;;;;5062062;28;20437;-80
2021/11/19 10:24:42;;;;;;;12.13;9.03;;;8.00;99.90;;;;;;5018357;28;20431;-80
2021/11/19 10:27:14;;;;;;;16.00;9.77;;;8.30;99.90;;;;;;5022627;28;20432;-80
2021/11/19 10:30:05;;;;;;;21.07;8.87;;;8.50;99.90;;;;;;5040629;28;20408;-81
2021/11/19 10:32:32;;;;;;;13.73;7.03;;;8.30;99.90;;;;;;5033042;28;20435;-83
2021/11/19 10:35:17;;;;;;;13.57;8.50;;;7.70;99.90;;;;;;5023728;28;21113;-82
2021/11/19 10:37:58;;;;;;;13.17;7.97;;;7.70;99.90;;;;;;5041801;28;20435;-83
2021/11/19 10:40:52;;;;;;;15.63;8.57;;;7.70;99.90;;;;;;5038423;28;20590;-82
2021/11/19 10:43:38;;;;;;;16.67;10.90;;;7.70;99.90;;;;;;5022290;28;20422;-82
2021/11/19 10:46:25;;;;;;;11.53;8.57;;;7.90;99.90;;;;;;5051464;28;20323;-79
2021/11/19 10:49:06;;;;;;;15.10;9.80;;;7.90;99.90;;;;;;5067965;28;20446;-81
2021/11/19 10:52:02;;;;;;;16.43;9.97;;;7.80;99.90;;;;;;5080698;28;20523;-81
2021/11/19 10:54:58;;;;;;;15.80;9.70;;;7.80;99.90;;;;;;5096515;28;20383;-79
2021/11/19 10:57:54;;;;;;;13.60;10.23;;;7.90;99.90;;;;;;5088369;28;20482;-81
2021/11/19 11:00:42;;;;;;;13.90;8.70;;;7.80;99.90;;;;;;5096387;28;20417;-80
2021/11/19 11:03:13;;;;;;;13.50;9.70;;;8.00;99.90;;;;;;5070755;28;20415;-80
2021/11/19 11:05:43;;;;;;;12.70;7.80;;;7.90;99.90;;;;;;5074576;28;20538;-80
2021/11/19 11:08:31;;;;;;;15.30;9.37;;;7.80;99.90;;;;;;5105464;28;20594;-81
2021/11/19 11:11:04;;;;;;;14.93;7.90;;;7.80;99.90;;;;;;5081710;28;20571;-80
2021/11/19 11:13:37;;;;;;;15.70;9.90;;;7.80;99.90;;;;;;5088794;28;20391;-79
2021/11/19 11:16:25;;;;;;;15.00;9.10;;;7.90;99.90;;;;;;5080085;28;20409;-80
2021/11/19 11:19:13;;;;;;;15.40;9.90;;;8.20;99.90;;;;;;5085225;28;20442;-82
2021/11/19 11:22:01;;;;;;;11.17;7.90;;;7.90;99.90;;;;;;5086502;28;20482;-80
2021/11/19 11:24:33;;;;;;;16.47;9.03;;;7.90;99.90;;;;;;5101799;28;20433;-81
2021/11/19 11:27:26;;;;;;;13.03;8.20;;;7.90;99.90;;;;;;5098952;28;20487;-80
2021/11/19 11:29:58;;;;;;;14.23;9.73;;;8.00;99.90;;;;;;5063528;28;20391;-79
2021/11/19 11:32:35;;;;;;;20.37;9.67;;;8.30;99.90;;;;;;5088745;28;20383;-79
2021/11/19 11:35:14;;;;;;;17.43;8.93;;;8.00;99.90;;;;;;5087874;28;20437;-80
2021/11/19 11:37:56;;;;;;;12.47;9.10;;;8.10;99.90;;;;;;5052720;28;20822;-80
2021/11/19 11:40:41;;;;;;;16.67;9.60;;;8.30;99.90;;;;;;5111178;28;20433;-80
2021/11/19 11:43:22;;;;;;;15.00;8.70;;;8.20;99.90;;;;;;5085142;28;20519;-80
2021/11/19 11:45:52;;;;;;;13.00;8.97;;;8.30;99.90;;;;;;5087256;28;20559;-81
2021/11/19 11:48:44;;;;;;;11.93;8.10;;;8.60;99.90;;;;;;5104576;28;20423;-80
2021/11/19 11:51:25;;;;;;;17.93;8.10;;;8.80;99.90;;;;;;5097833;28;20421;-82
2021/11/19 11:54:11;;;;;;;10.43;7.60;;;9.00;99.90;;;;;;5078631;28;20399;-80
2021/11/19 11:56:43;;;;;;;9.43;7.13;;;9.10;99.90;;;;;;5082826;28;20436;-81
2021/11/19 11:59:17;;;;;;;8.43;6.10;;;9.20;99.90;;;;;;5085367;28;20466;-79
2021/11/19 12:02:08;;;;;;;8.23;4.70;;;9.30;99.90;;;;;;5106511;28;20420;-81
2021/11/19 12:05:05;;;;;;;6.73;4.80;;;9.40;99.90;;;;;;5032770;28;20426;-81
2021/11/19 12:08:01;;;;;;;12.10;7.37;;;9.50;99.90;;;;;;5000148;28;20474;-81
2021/11/19 12:11:09;;;;;;;7.77;5.83;;;9.60;99.90;;;;;;4999324;28;20458;-82
2021/11/19 12:13:49;;;;;;;12.63;7.80;;;9.20;99.90;;;;;;4997640;28;20384;-80
2021/11/19 12:16:39;;;;;;;8.47;6.70;;;8.80;99.90;;;;;;4987479;28;20403;-83
2021/11/19 12:19:22;;;;;;;10.60;7.33;;;9.10;99.90;;;;;;5012516;28;20405;-80
2021/11/19 12:22:19;;;;;;;11.27;8.40;;;8.90;99.90;;;;;;4998555;28;20477;-81
2021/11/19 12:25:11;;;;;;;11.90;8.60;;;8.90;99.90;;;;;;5020071;28;20524;-80
2021/11/19 12:27:45;;;;;;;11.37;8.13;;;9.50;99.90;;;;;;5011469;28;20452;-80
2021/11/19 12:30:33;;;;;;;9.23;7.70;;;9.20;99.90;;;;;;5019177;28;20440;-80
2021/11/19 12:33:20;;;;;;;10.03;7.40;;;9.40;99.90;;;;;;5051299;28;20431;-80
2021/11/19 12:36:10;;;;;;;12.07;7.47;;;9.50;99.90;;;;;;5041327;28;20470;-80
2021/11/19 12:38:41;;;;;;;15.23;7.97;;;9.50;99.90;;;;;;5060032;28;20391;-79
2021/11/19 12:41:32;;;;;;;16.40;8.77;;;9.40;99.90;;;;;;5104572;28;20391;-80
2021/11/19 12:44:34;;;;;;;9.47;6.30;;;9.50;99.90;;;;;;5035436;28;20783;-82
2021/11/19 12:47:28;;;;;;;8.77;7.40;;;9.50;99.90;;;;;;5017032;28;20427;-80
2021/11/19 12:50:20;;;;;;;9.00;7.50;;;9.90;99.90;;;;;;5042790;28;20390;-80
2021/11/19 12:53:12;;;;;;;10.10;7.57;;;10.30;99.90;;;;;;5033295;28;20431;-80
2021/11/19 12:56:01;;;;;;;11.27;6.70;;;10.60;99.90;;;;;;5029161;28;20401;-81
2021/11/19 12:58:32;;;;;;;10.43;7.93;;;10.70;99.90;;;;;;5023402;28;20504;-81
2021/11/19 13:01:15;;;;;;;9.50;7.47;;;10.10;99.90;;;;;;5023290;28;20424;-80
2021/11/19 13:04:20;;;;;;;11.20;7.50;;;9.80;99.90;;;;;;5023976;28;20446;-81
2021/11/19 13:07:28;;;;;;;14.13;7.70;;;9.70;99.90;;;;;;5001396;28;20425;-80
2021/11/19 13:09:58;;;;;;;14.27;8.57;;;10.00;99.90;;;;;;5016653;28;20520;-81
2021/11/19 13:13:01;;;;;;;10.27;7.90;;;9.50;99.90;;;;;;5026593;28;20387;-81
2021/11/19 13:15:33;;;;;;;12.10;6.87;;;9.90;99.90;;;;;;5047674;28;20422;-81
2021/11/19 13:18:15;;;;;;;12.33;8.63;;;9.50;99.90;;;;;;5066846;28;20428;-81
2021/11/19 13:20:57;;;;;;;12.80;9.10;;;9.30;99.90;;;;;;5038622;28;20446;-81
2021/11/19 13:23:43;;;;;;;11.87;9.90;;;9.20;99.90;;;;;;4989010;28;20414;-82
2021/11/19 13:26:35;;;;;;;14.00;9.47;;;9.10;99.90;;;;;;5008643;28;20420;-82
2021/11/19 13:29:07;;;;;;;14.30;9.90;;;9.10;99.90;;;;;;5042505;28;20467;-81
2021/11/19 13:31:38;;;;;;;16.20;9.90;;;9.00;99.90;;;;;;5010054;28;20390;-80
2021/11/19 13:34:25;;;;;;;9.77;8.20;;;8.90;99.90;;;;;;5000140;28;20546;-82
2021/11/19 13:37:26;;;;;;;13.17;9.30;;;8.80;99.90;;;;;;5006268;28;20486;-81
2021/11/19 13:40:17;;;;;;;15.70;9.93;;;8.90;99.90;;;;;;5018261;28;20409;-81